This is the latest recevied weather packets stored in our database for station/object N8RJC-13. If no packets are shown the sender has not sent any weather packets the latest 1 day(s).
| Time | Temp. | Humidity | Pressure | Rain* | Wind** | Luminosity | Snow |
|---|---|---|---|---|---|---|---|
| 1778091621 | 15° C | 55% | 989.5 hPa | 0 mm | 0.89 m/s, 19° | - | - |
| 1778091501 | 15° C | 55% | 989.5 hPa | 0 mm | 0.89 m/s, 19° | - | - |
| 1778091441 | 15° C | 55% | 989.5 hPa | 0 mm | 0.89 m/s, 19° | - | - |
| 1778091381 | 15° C | 55% | 989.5 hPa | 0 mm | 0.89 m/s, 19° | - | - |
| 1778091321 | 15° C | 52% | 989.4 hPa | 0 mm | 4.02 m/s, 323° | - | - |
| 1778091201 | 15° C | 52% | 989.4 hPa | 0 mm | 4.02 m/s, 323° | - | - |
| 1778091081 | 15° C | 52% | 989.4 hPa | 0 mm | 4.02 m/s, 323° | - | - |
| 1778091021 | 14.44° C | 53% | 989.4 hPa | 0 mm | 0.89 m/s, 42° | - | - |
| 1778090961 | 14.44° C | 53% | 989.4 hPa | 0 mm | 0.89 m/s, 42° | - | - |
| 1778090841 | 14.44° C | 53% | 989.4 hPa | 0 mm | 0.89 m/s, 42° | - | - |
| 1778090781 | 14.44° C | 53% | 989.4 hPa | 0 mm | 0.89 m/s, 42° | - | - |
| 1778090601 | 15° C | 53% | 989.7 hPa | 0 mm | 2.68 m/s, 347° | - | - |
| 1778090541 | 15° C | 53% | 989.7 hPa | 0 mm | 2.68 m/s, 347° | - | - |
| 1778090361 | 15° C | 55% | 989.8 hPa | 0 mm | 0.45 m/s, 274° | - | - |
| 1778090301 | 15° C | 55% | 989.8 hPa | 0 mm | 0.45 m/s, 274° | - | - |
| 1778090181 | 15° C | 55% | 989.8 hPa | 0 mm | 0.45 m/s, 274° | - | - |
| 1778090121 | 14.44° C | 55% | 989.8 hPa | 0 mm | 1.79 m/s, 358° | - | - |
| 1778089881 | 14.44° C | 55% | 989.8 hPa | 0 mm | 1.79 m/s, 358° | - | - |
| 1778089821 | 15° C | 54% | 989.8 hPa | 0 mm | 0.89 m/s, 357° | - | - |
| 1778089761 | 15° C | 54% | 989.8 hPa | 0 mm | 0.89 m/s, 357° | - | - |
| 1778089701 | 15° C | 54% | 989.8 hPa | 0 mm | 0.89 m/s, 357° | - | - |
| 1778089461 | 15.56° C | 53% | 989.6 hPa | 0 mm | 0 m/s | - | - |
| 1778089401 | 15.56° C | 53% | 989.6 hPa | 0 mm | 0 m/s | - | - |
| 1778089341 | 15.56° C | 53% | 989.6 hPa | 0 mm | 0 m/s | - | - |
| 1778089221 | 15.56° C | 55% | 989.9 hPa | 0 mm | 0.89 m/s, 307° | - | - |
* Rain latest hour (hover to see other rain measurements)
** Current wind speed in m/s (hover to see current wind gust speed)